createdAt,value
2019-03-25T00:00:56.743Z,6.07
2019-03-25T00:03:27.973Z,6.02
2019-03-25T00:05:58.811Z,5.88
2019-03-25T00:08:29.767Z,6.05
2019-03-25T00:11:01.127Z,6.27
2019-03-25T00:13:32.006Z,6.33
2019-03-25T00:16:03.259Z,6.20
2019-03-25T00:18:34.563Z,6.24
2019-03-25T00:21:05.491Z,6.09
2019-03-25T00:23:36.399Z,5.93
2019-03-25T00:26:07.355Z,5.86
2019-03-25T00:28:38.263Z,6.04
2019-03-25T00:31:09.392Z,6.06
2019-03-25T00:33:40.233Z,5.99
2019-03-25T00:36:11.113Z,5.79
2019-03-25T00:38:42.421Z,5.70
2019-03-25T00:41:13.558Z,5.66
2019-03-25T00:43:44.788Z,5.66
2019-03-25T00:46:15.871Z,5.74
2019-03-25T00:48:47.218Z,5.69
2019-03-25T00:51:18.479Z,5.81
2019-03-25T00:53:49.486Z,6.03
2019-03-25T00:56:20.445Z,6.05
2019-03-25T00:58:51.621Z,5.91
2019-03-25T01:01:22.626Z,5.65
2019-03-25T01:03:53.673Z,5.74
2019-03-25T01:06:24.871Z,5.95
2019-03-25T01:08:56.197Z,5.82
2019-03-25T01:11:27.370Z,5.95
2019-03-25T01:13:58.665Z,5.98
2019-03-25T01:16:30.002Z,6.05
2019-03-25T01:19:01.046Z,5.98
2019-03-25T01:21:32.298Z,6.15
2019-03-25T01:24:03.574Z,6.29
2019-03-25T01:26:34.982Z,6.33
2019-03-25T01:29:06.100Z,6.28
2019-03-25T01:31:37.066Z,6.26
2019-03-25T01:34:08.087Z,6.32
2019-03-25T01:36:39.217Z,6.29
2019-03-25T01:39:10.549Z,6.19
2019-03-25T01:41:41.496Z,6.16
2019-03-25T01:44:12.683Z,6.08
2019-03-25T01:46:43.511Z,6.05
2019-03-25T01:49:15.628Z,5.65
2019-03-25T01:51:46.797Z,5.38
2019-03-25T01:54:17.686Z,5.43
2019-03-25T01:56:48.633Z,5.41
2019-03-25T01:59:19.888Z,5.33
2019-03-25T02:01:50.770Z,4.91
2019-03-25T02:04:21.744Z,4.80
2019-03-25T02:06:52.704Z,4.63
2019-03-25T02:09:23.769Z,4.55
2019-03-25T02:11:54.930Z,4.49
2019-03-25T02:14:25.803Z,4.41
2019-03-25T02:16:56.626Z,4.49
2019-03-25T02:19:27.933Z,4.29
2019-03-25T02:21:58.989Z,4.30
2019-03-25T02:24:30.099Z,4.39
2019-03-25T02:27:01.702Z,4.47
2019-03-25T02:29:32.626Z,4.48
2019-03-25T02:32:03.466Z,4.65
2019-03-25T02:34:35.559Z,4.60
2019-03-25T02:37:06.402Z,4.51
2019-03-25T02:39:37.504Z,4.56
2019-03-25T02:42:08.729Z,4.73
2019-03-25T02:44:39.852Z,4.59
2019-03-25T02:47:11.057Z,4.50
2019-03-25T02:49:42.291Z,4.56
2019-03-25T02:52:13.119Z,4.40
2019-03-25T02:54:44.296Z,4.40
2019-03-25T02:57:15.639Z,4.55
2019-03-25T02:59:46.449Z,4.69
2019-03-25T03:02:17.369Z,4.89
2019-03-25T03:04:48.307Z,4.95
2019-03-25T03:07:19.279Z,4.90
2019-03-25T03:09:50.412Z,4.95
2019-03-25T03:12:21.270Z,4.94
2019-03-25T03:14:53.381Z,4.96
2019-03-25T03:17:24.902Z,4.92
2019-03-25T03:19:55.862Z,4.98
2019-03-25T03:22:26.852Z,4.76
2019-03-25T03:24:58.131Z,4.91
2019-03-25T03:27:29.995Z,4.70
2019-03-25T03:30:01.379Z,4.61
2019-03-25T03:32:32.619Z,4.46
2019-03-25T03:35:03.445Z,4.33
2019-03-25T03:37:34.392Z,4.67
2019-03-25T03:40:06.088Z,4.61
2019-03-25T03:42:37.065Z,4.28
2019-03-25T03:45:09.347Z,4.14
2019-03-25T03:47:40.619Z,3.97
2019-03-25T03:50:16.404Z,3.92
2019-03-25T03:52:47.546Z,3.85
2019-03-25T03:55:18.752Z,4.06
2019-03-25T03:57:49.796Z,4.26
2019-03-25T04:00:29.256Z,4.40
2019-03-25T04:03:00.513Z,4.62
2019-03-25T04:05:31.717Z,4.59
2019-03-25T04:08:02.643Z,4.60
2019-03-25T04:10:33.648Z,4.63
2019-03-25T04:13:04.748Z,4.47
2019-03-25T04:15:35.847Z,4.18
2019-03-25T04:18:07.059Z,4.40
2019-03-25T04:20:38.072Z,4.32
2019-03-25T04:23:09.145Z,4.41
2019-03-25T04:25:40.473Z,4.44
2019-03-25T04:28:11.388Z,4.41
2019-03-25T04:30:42.426Z,4.65
2019-03-25T04:33:14.330Z,4.08
2019-03-25T04:35:45.206Z,3.83
2019-03-25T04:38:16.147Z,3.71
2019-03-25T04:40:47.428Z,3.61
2019-03-25T04:43:18.465Z,3.71
2019-03-25T04:45:49.737Z,3.73
2019-03-25T04:48:20.874Z,3.76
2019-03-25T04:50:51.865Z,4.15
2019-03-25T04:53:23.032Z,4.08
2019-03-25T04:55:54.920Z,4.15
2019-03-25T04:58:25.855Z,4.43
2019-03-25T05:00:57.215Z,4.45
2019-03-25T05:03:29.018Z,4.58
2019-03-25T05:06:00.068Z,4.15
2019-03-25T05:08:31.321Z,4.33
2019-03-25T05:11:03.913Z,4.52
2019-03-25T05:13:34.719Z,4.57
2019-03-25T05:16:06.979Z,4.54
2019-03-25T05:18:38.091Z,4.49
2019-03-25T05:21:10.523Z,4.60
2019-03-25T05:23:41.439Z,4.85
2019-03-25T05:26:12.504Z,5.07
2019-03-25T05:28:43.594Z,5.49
2019-03-25T05:31:14.746Z,5.63
2019-03-25T05:33:45.552Z,5.68
2019-03-25T05:36:16.521Z,5.93
2019-03-25T05:38:48.648Z,6.19
2019-03-25T05:41:19.734Z,6.21
2019-03-25T05:43:50.871Z,6.35
2019-03-25T05:46:23.149Z,6.38
2019-03-25T05:48:53.989Z,6.45
2019-03-25T05:51:25.054Z,6.67
2019-03-25T05:53:56.219Z,6.86
2019-03-25T05:56:27.158Z,6.87
2019-03-25T05:58:58.257Z,7.09
2019-03-25T06:01:29.432Z,7.33
2019-03-25T06:04:00.311Z,7.73
2019-03-25T06:06:31.205Z,7.70
2019-03-25T06:09:02.411Z,7.76
2019-03-25T06:11:33.670Z,8.11
2019-03-25T06:14:04.628Z,8.01
2019-03-25T06:16:35.701Z,8.14
2019-03-25T06:19:06.846Z,8.24
2019-03-25T06:21:37.940Z,8.18
2019-03-25T06:24:08.983Z,8.24
2019-03-25T06:26:39.904Z,8.50
2019-03-25T06:29:12.693Z,8.67
2019-03-25T06:31:43.902Z,8.70
2019-03-25T06:34:14.763Z,9.18
2019-03-25T06:36:45.728Z,9.10
2019-03-25T06:39:16.681Z,9.05
2019-03-25T06:41:47.682Z,9.21
2019-03-25T06:44:18.780Z,9.24
2019-03-25T06:46:49.958Z,9.24
2019-03-25T06:49:20.866Z,9.39
2019-03-25T06:51:51.871Z,9.46
2019-03-25T06:54:22.905Z,9.79
2019-03-25T06:56:54.134Z,9.87
2019-03-25T06:59:25.279Z,9.95
2019-03-25T07:01:56.238Z,10.08
2019-03-25T07:04:27.471Z,10.34
2019-03-25T07:06:58.808Z,10.40
2019-03-25T07:09:29.674Z,10.53
2019-03-25T07:12:00.746Z,10.69
2019-03-25T07:14:31.903Z,10.85
2019-03-25T07:17:02.746Z,11.01
2019-03-25T07:19:33.694Z,11.21
2019-03-25T07:22:04.942Z,11.06
2019-03-25T07:24:35.820Z,11.18
2019-03-25T07:27:07.025Z,11.35
2019-03-25T07:29:37.869Z,11.20
2019-03-25T07:32:09.259Z,11.49
2019-03-25T07:34:41.341Z,11.78
2019-03-25T07:37:12.275Z,11.81
2019-03-25T07:39:43.250Z,11.74
2019-03-25T07:42:14.415Z,12.01
2019-03-25T07:44:45.249Z,11.90
2019-03-25T07:47:17.102Z,11.78
2019-03-25T07:49:48.261Z,12.01
2019-03-25T07:52:19.303Z,12.48
2019-03-25T07:54:50.208Z,12.61
2019-03-25T07:57:21.482Z,12.72
2019-03-25T07:59:52.702Z,12.71
2019-03-25T08:02:23.988Z,12.74
2019-03-25T08:04:55.075Z,12.86
2019-03-25T08:07:26.269Z,12.82
2019-03-25T08:09:58.228Z,12.76
2019-03-25T08:12:29.423Z,12.84
2019-03-25T08:15:00.450Z,12.96
2019-03-25T08:17:31.423Z,13.26
2019-03-25T08:20:02.273Z,13.32
2019-03-25T08:22:33.472Z,13.06
2019-03-25T08:25:04.584Z,13.25
2019-03-25T08:27:35.444Z,13.49
2019-03-25T08:30:09.472Z,13.70
2019-03-25T08:32:40.507Z,14.13
2019-03-25T08:37:49.764Z,14.17
2019-03-25T08:40:20.945Z,14.19
2019-03-25T08:42:53.230Z,14.25
2019-03-25T08:45:24.715Z,14.48
2019-03-25T08:47:55.664Z,14.57
2019-03-25T08:50:26.603Z,14.74
2019-03-25T08:52:57.751Z,14.82
2019-03-25T08:55:28.645Z,15.19
2019-03-25T08:58:11.210Z,15.31
2019-03-25T09:00:32.798Z,15.56
2019-03-25T09:03:03.925Z,15.80
2019-03-25T09:05:35.044Z,15.91
2019-03-25T09:08:06.023Z,15.92
2019-03-25T09:10:37.217Z,15.77
2019-03-25T09:13:08.442Z,15.95
2019-03-25T09:15:39.301Z,16.01
2019-03-25T09:18:10.545Z,16.14
2019-03-25T09:20:41.732Z,16.25
2019-03-25T09:23:12.634Z,16.49
2019-03-25T09:25:43.692Z,16.62
2019-03-25T09:28:23.646Z,16.97
2019-03-25T09:31:19.897Z,16.97
2019-03-25T09:33:51.050Z,17.23
2019-03-25T09:36:24.935Z,17.56
2019-03-25T09:38:55.967Z,17.34
2019-03-25T09:41:27.166Z,17.49
2019-03-25T09:43:58.429Z,17.50
2019-03-25T09:46:29.370Z,17.63
2019-03-25T09:49:00.972Z,17.84
2019-03-25T09:51:31.866Z,18.36
2019-03-25T09:54:02.796Z,18.66
2019-03-25T09:56:33.843Z,19.15
2019-03-25T09:59:05.211Z,20.35
2019-03-25T10:01:36.054Z,20.31
2019-03-25T10:04:07.721Z,20.91
2019-03-25T10:06:38.952Z,21.16
2019-03-25T10:09:12.300Z,20.98
2019-03-25T10:11:43.142Z,21.47
2019-03-25T10:14:17.299Z,21.91
2019-03-25T10:16:48.611Z,21.82
2019-03-25T10:19:19.985Z,22.05
2019-03-25T10:21:50.831Z,22.10
2019-03-25T10:24:27.634Z,22.68
2019-03-25T10:26:54.920Z,23.50
2019-03-25T10:29:25.799Z,23.32
2019-03-25T10:31:56.894Z,23.03
2019-03-25T10:34:27.968Z,23.95
2019-03-25T10:36:58.833Z,23.91
2019-03-25T10:39:30.072Z,24.44
2019-03-25T10:42:01.008Z,24.78
2019-03-25T10:44:32.480Z,24.37
2019-03-25T10:47:03.780Z,24.31
2019-03-25T10:49:34.953Z,24.92
2019-03-25T10:52:06.145Z,24.57
2019-03-25T10:54:37.764Z,24.51
2019-03-25T10:57:08.677Z,23.96
2019-03-25T10:59:39.756Z,24.07
2019-03-25T11:02:11.086Z,24.05
2019-03-25T11:04:43.071Z,23.74
2019-03-25T11:07:14.217Z,24.17
2019-03-25T11:09:45.583Z,23.93
2019-03-25T11:12:16.438Z,23.94
2019-03-25T11:14:47.743Z,23.92
2019-03-25T11:17:18.695Z,23.88
2019-03-25T11:19:50.115Z,24.41
2019-03-25T11:22:21.255Z,24.42
2019-03-25T11:24:52.304Z,24.69
2019-03-25T11:27:23.226Z,24.75
2019-03-25T11:29:54.385Z,24.64
2019-03-25T11:32:25.213Z,24.60
2019-03-25T11:34:56.092Z,24.34
2019-03-25T11:37:27.128Z,24.14
2019-03-25T11:39:58.233Z,24.25
2019-03-25T11:42:29.167Z,24.64
2019-03-25T11:45:01.365Z,24.96
2019-03-25T11:47:32.591Z,24.68
2019-03-25T11:50:04.010Z,24.16
2019-03-25T11:52:34.848Z,24.49
2019-03-25T11:55:06.581Z,24.29
2019-03-25T11:57:38.805Z,22.73
2019-03-25T12:00:10.346Z,23.42
2019-03-25T12:02:41.195Z,23.07
2019-03-25T12:05:12.576Z,23.15
2019-03-25T12:07:43.590Z,23.41
2019-03-25T12:10:14.703Z,24.67
2019-03-25T12:12:45.838Z,25.17
2019-03-25T12:15:17.299Z,25.35
2019-03-25T12:17:48.207Z,25.21
2019-03-25T12:20:19.447Z,25.25
2019-03-25T12:22:50.743Z,24.14
2019-03-25T12:25:21.708Z,25.03
2019-03-25T12:27:52.948Z,25.26
2019-03-25T12:30:25.389Z,25.17
2019-03-25T12:33:03.888Z,24.67
2019-03-25T12:35:29.976Z,24.32
2019-03-25T12:38:01.166Z,25.45
2019-03-25T12:40:32.161Z,24.83
2019-03-25T12:43:02.975Z,24.89
2019-03-25T12:45:33.964Z,23.89
2019-03-25T12:48:05.326Z,23.73
2019-03-25T12:50:37.377Z,23.73
2019-03-25T12:53:08.314Z,23.89
2019-03-25T12:55:39.540Z,24.09
2019-03-25T12:58:10.647Z,24.82
2019-03-25T13:00:43.223Z,24.35
2019-03-25T13:03:14.064Z,24.56
2019-03-25T13:05:46.347Z,24.66
2019-03-25T13:08:17.473Z,24.46
2019-03-25T13:10:49.608Z,24.92
2019-03-25T13:13:20.542Z,24.69
2019-03-25T13:15:51.526Z,26.00
2019-03-25T13:18:22.372Z,26.75
2019-03-25T13:20:53.514Z,26.63
2019-03-25T13:23:24.449Z,26.26
2019-03-25T13:25:55.640Z,27.06
2019-03-25T13:28:26.600Z,27.22
2019-03-25T13:30:57.515Z,27.27
2019-03-25T13:33:29.495Z,26.71
2019-03-25T13:36:00.712Z,26.98
2019-03-25T13:38:31.565Z,26.38
2019-03-25T13:41:02.819Z,25.74
2019-03-25T13:43:34.072Z,25.64
2019-03-25T13:46:05.918Z,25.22
2019-03-25T13:48:37.801Z,25.49
2019-03-25T13:51:08.821Z,25.22
2019-03-25T13:53:39.848Z,25.74
2019-03-25T13:56:11.159Z,25.92
2019-03-25T13:58:42.219Z,26.00
2019-03-25T14:01:13.319Z,25.59
2019-03-25T14:03:44.393Z,25.86
2019-03-25T14:06:15.441Z,26.07
2019-03-25T14:08:46.410Z,25.89
2019-03-25T14:11:17.836Z,25.41
2019-03-25T14:13:49.649Z,25.34
2019-03-25T14:16:20.594Z,24.09
2019-03-25T14:18:51.545Z,23.48
2019-03-25T14:21:22.452Z,23.25
2019-03-25T14:23:53.495Z,23.50
2019-03-25T14:26:24.668Z,24.07
2019-03-25T14:28:55.562Z,23.91
2019-03-25T14:31:26.791Z,23.95
2019-03-25T14:33:57.721Z,24.09
2019-03-25T14:36:29.614Z,23.45
2019-03-25T14:39:00.979Z,23.51
2019-03-25T14:41:33.552Z,23.25
2019-03-25T14:44:04.510Z,22.90
2019-03-25T14:46:35.762Z,22.54
2019-03-25T14:49:07.067Z,22.26
2019-03-25T14:51:37.918Z,22.58
2019-03-25T14:54:08.868Z,22.66
2019-03-25T14:56:40.137Z,22.69
2019-03-25T14:59:12.778Z,23.05
2019-03-25T15:01:44.075Z,23.12
2019-03-25T15:04:14.964Z,22.27
2019-03-25T15:06:46.132Z,22.56
2019-03-25T15:09:17.314Z,22.53
2019-03-25T15:11:48.217Z,22.53
2019-03-25T15:14:19.171Z,22.82
2019-03-25T15:16:50.218Z,22.70
2019-03-25T15:19:22.006Z,21.00
2019-03-25T15:21:53.012Z,22.60
2019-03-25T15:24:24.078Z,22.99
2019-03-25T15:26:54.957Z,23.03
2019-03-25T15:29:25.894Z,23.05
2019-03-25T15:31:56.970Z,23.19
2019-03-25T15:34:28.160Z,22.92
2019-03-25T15:36:59.376Z,22.62
2019-03-25T15:39:30.487Z,22.63
2019-03-25T15:42:01.564Z,22.25
2019-03-25T15:44:32.826Z,22.75
2019-03-25T15:47:03.721Z,23.09
2019-03-25T15:49:34.654Z,23.02
2019-03-25T15:52:06.414Z,23.48
2019-03-25T15:54:37.474Z,23.59
2019-03-25T15:57:09.425Z,23.66
2019-03-25T15:59:41.032Z,23.90
2019-03-25T16:02:12.545Z,24.07
2019-03-25T16:04:43.846Z,23.91
2019-03-25T16:07:15.169Z,23.97
2019-03-25T16:09:46.278Z,23.92
2019-03-25T16:12:17.452Z,23.70
2019-03-25T16:14:48.410Z,23.63
2019-03-25T16:17:19.315Z,23.44
2019-03-25T16:19:50.497Z,23.36
2019-03-25T16:22:21.404Z,22.13
2019-03-25T16:24:52.240Z,22.11
2019-03-25T16:27:23.459Z,22.21
2019-03-25T16:29:54.540Z,22.35
2019-03-25T16:32:25.483Z,22.14
2019-03-25T16:34:56.775Z,21.60
2019-03-25T16:37:28.325Z,21.46
2019-03-25T16:39:59.156Z,21.46
2019-03-25T16:42:30.137Z,20.75
2019-03-25T16:45:01.659Z,20.72
2019-03-25T16:47:32.817Z,20.59
2019-03-25T16:50:03.853Z,20.39
2019-03-25T16:52:35.082Z,19.90
2019-03-25T16:55:06.352Z,19.64
2019-03-25T16:57:38.608Z,19.92
2019-03-25T17:00:10.176Z,19.43
2019-03-25T17:02:42.180Z,18.82
2019-03-25T17:05:13.017Z,18.48
2019-03-25T17:07:44.082Z,18.23
2019-03-25T17:10:15.155Z,18.02
2019-03-25T17:12:46.592Z,17.37
2019-03-25T17:15:17.419Z,17.05
2019-03-25T17:17:48.319Z,17.05
2019-03-25T17:20:19.490Z,16.88
2019-03-25T17:22:50.898Z,16.79
2019-03-25T17:25:21.788Z,16.62
2019-03-25T17:27:53.190Z,16.32
2019-03-25T17:30:24.572Z,16.36
2019-03-25T17:32:56.713Z,16.13
2019-03-25T17:35:27.681Z,16.04
2019-03-25T17:37:59.727Z,16.14
2019-03-25T17:40:30.698Z,16.17
2019-03-25T17:43:01.956Z,16.54
2019-03-25T17:45:32.808Z,16.65
2019-03-25T17:48:04.501Z,16.72
2019-03-25T17:50:35.667Z,16.91
2019-03-25T17:53:06.634Z,16.73
2019-03-25T17:55:37.951Z,16.23
2019-03-25T17:58:09.219Z,16.13
2019-03-25T18:01:32.436Z,16.15
2019-03-25T18:04:01.400Z,16.13
2019-03-25T18:06:32.402Z,15.80
2019-03-25T18:09:07.226Z,15.84
2019-03-25T18:11:38.131Z,15.89
2019-03-25T18:14:09.663Z,15.81
2019-03-25T18:16:40.785Z,15.66
2019-03-25T18:19:12.058Z,15.40
2019-03-25T18:21:42.898Z,15.45
2019-03-25T18:24:14.043Z,15.65
2019-03-25T18:26:45.103Z,15.64
2019-03-25T18:29:17.123Z,15.55
2019-03-25T18:31:48.280Z,15.71
2019-03-25T18:34:19.277Z,15.97
2019-03-25T18:36:50.159Z,16.05
2019-03-25T18:39:21.198Z,16.05
2019-03-25T18:41:52.440Z,15.89
2019-03-25T18:44:23.525Z,15.92
2019-03-25T18:46:54.732Z,15.81
2019-03-25T18:49:25.642Z,15.92
2019-03-25T18:51:56.656Z,15.96
2019-03-25T18:54:27.901Z,16.13
2019-03-25T18:56:59.427Z,16.03
2019-03-25T18:59:30.323Z,16.16
2019-03-25T19:02:01.507Z,16.24
2019-03-25T19:04:32.606Z,16.10
2019-03-25T19:07:03.575Z,16.40
2019-03-25T19:09:34.899Z,16.56
2019-03-25T19:12:06.039Z,16.62
2019-03-25T19:14:36.949Z,16.79
2019-03-25T19:17:08.174Z,16.73
2019-03-25T19:19:40.177Z,16.70
2019-03-25T19:22:12.938Z,16.79
2019-03-25T19:24:44.287Z,16.93
2019-03-25T19:27:17.558Z,17.01
2019-03-25T19:29:48.995Z,16.84
2019-03-25T19:32:20.123Z,16.88
2019-03-25T19:34:51.006Z,16.76
2019-03-25T19:37:21.953Z,16.72
2019-03-25T19:39:54.126Z,16.70
2019-03-25T19:42:25.214Z,16.66
2019-03-25T19:44:56.405Z,16.59
2019-03-25T19:47:27.790Z,16.61
2019-03-25T19:49:58.849Z,16.48
2019-03-25T19:52:30.012Z,16.40
2019-03-25T19:55:01.081Z,16.42
2019-03-25T19:57:32.460Z,16.31
2019-03-25T20:00:04.506Z,16.32
2019-03-25T20:02:35.430Z,16.21
2019-03-25T20:05:06.897Z,16.17
2019-03-25T20:07:39.367Z,15.99
2019-03-25T20:10:17.408Z,15.87
2019-03-25T20:12:48.596Z,15.81
2019-03-25T20:15:19.889Z,15.76
2019-03-25T20:17:50.736Z,15.66
2019-03-25T20:20:21.717Z,15.56
2019-03-25T20:22:52.909Z,15.47
2019-03-25T20:25:24.329Z,15.38
2019-03-25T20:27:55.603Z,15.37
2019-03-25T20:30:26.767Z,15.34
2019-03-25T20:32:57.931Z,15.29
2019-03-25T20:35:29.900Z,15.28
2019-03-25T20:38:00.819Z,15.19
2019-03-25T20:40:32.213Z,15.03
2019-03-25T20:43:03.343Z,14.99
2019-03-25T20:45:34.592Z,15.06
2019-03-25T20:48:05.568Z,14.97
2019-03-25T20:50:36.796Z,15.00
2019-03-25T20:53:08.122Z,14.67
2019-03-25T20:55:39.093Z,14.54
2019-03-25T20:58:10.251Z,14.61
2019-03-25T21:00:55.701Z,14.52
2019-03-25T21:03:26.724Z,14.38
2019-03-25T21:05:57.703Z,14.52
2019-03-25T21:08:28.759Z,14.60
2019-03-25T21:10:59.748Z,14.52
2019-03-25T21:13:30.677Z,14.34
2019-03-25T21:16:02.005Z,14.29
2019-03-25T21:18:32.994Z,14.18
2019-03-25T21:21:04.180Z,13.77
2019-03-25T21:23:35.395Z,13.52
2019-03-25T21:26:06.547Z,13.75
2019-03-25T21:28:37.722Z,13.54
2019-03-25T21:31:08.608Z,12.91
2019-03-25T21:33:39.489Z,12.53
2019-03-25T21:36:11.878Z,12.16
2019-03-25T21:38:43.069Z,11.89
2019-03-25T21:41:14.139Z,11.73
2019-03-25T21:43:45.401Z,11.64
2019-03-25T21:46:16.557Z,11.43
2019-03-25T21:48:47.498Z,11.27
2019-03-25T21:51:18.893Z,11.04
2019-03-25T21:53:52.987Z,10.88
2019-03-25T21:56:22.873Z,10.84
2019-03-25T21:58:53.963Z,10.74
2019-03-25T22:01:24.890Z,10.84
2019-03-25T22:03:56.193Z,10.70
2019-03-25T22:06:27.168Z,10.60
2019-03-25T22:08:58.083Z,10.60
2019-03-25T22:11:29.553Z,10.53
2019-03-25T22:14:01.659Z,10.41
2019-03-25T22:16:32.651Z,10.34
2019-03-25T22:19:03.930Z,10.29
2019-03-25T22:21:35.263Z,10.31
2019-03-25T22:24:06.206Z,10.29
2019-03-25T22:26:37.252Z,10.15
2019-03-25T22:29:09.360Z,10.00
2019-03-25T22:31:40.333Z,10.12
2019-03-25T22:34:11.507Z,10.13
2019-03-25T22:36:42.381Z,10.20
2019-03-25T22:39:13.457Z,10.57
2019-03-25T22:41:44.645Z,10.26
2019-03-25T22:44:15.488Z,10.14
2019-03-25T22:46:46.746Z,9.96
2019-03-25T22:49:17.692Z,9.96
2019-03-25T22:51:48.646Z,9.84
2019-03-25T22:54:19.690Z,9.84
2019-03-25T22:56:50.790Z,9.80
2019-03-25T22:59:21.755Z,9.76
2019-03-25T23:01:52.595Z,9.55
2019-03-25T23:04:23.722Z,9.48
2019-03-25T23:06:54.903Z,9.51
2019-03-25T23:09:26.243Z,9.48
2019-03-25T23:11:59.215Z,9.55
2019-03-25T23:14:30.177Z,9.52
2019-03-25T23:17:01.376Z,9.70
2019-03-25T23:19:32.253Z,9.76
2019-03-25T23:22:03.092Z,9.49
2019-03-25T23:24:34.364Z,9.41
2019-03-25T23:27:05.500Z,9.50
2019-03-25T23:29:36.429Z,9.45
2019-03-25T23:32:07.487Z,9.43
2019-03-25T23:34:38.505Z,9.58
2019-03-25T23:37:09.554Z,9.46
2019-03-25T23:39:40.696Z,9.54
2019-03-25T23:42:13.298Z,9.64
2019-03-25T23:44:44.715Z,9.73
2019-03-25T23:47:15.747Z,9.84
2019-03-25T23:49:46.757Z,9.78
2019-03-25T23:52:18.005Z,9.89
2019-03-25T23:54:49.350Z,9.83
2019-03-25T23:57:20.291Z,10.08
2019-03-25T23:59:51.667Z,10.07
